sensor_id;sensor_type;location;lat;lon;timestamp;pressure;altitude;pressure_sealevel;temperature;humidity
56992;BME280;42885;49.754;18.636;2023-04-10T00:01:32;99110.68;;;10.55;100.00
56992;BME280;42885;49.754;18.636;2023-04-10T00:04:04;99110.25;;;10.45;100.00
56992;BME280;42885;49.754;18.636;2023-04-10T00:06:35;99112.92;;;10.63;100.00
56992;BME280;42885;49.754;18.636;2023-04-10T00:09:07;99108.27;;;10.40;100.00
56992;BME280;42885;49.754;18.636;2023-04-10T00:11:37;99111.73;;;10.22;100.00
56992;BME280;42885;49.754;18.636;2023-04-10T00:14:08;99110.39;;;10.32;100.00
56992;BME280;42885;49.754;18.636;2023-04-10T00:16:41;99112.55;;;10.43;100.00
56992;BME280;42885;49.754;18.636;2023-04-10T00:19:12;99103.72;;;10.35;100.00
56992;BME280;42885;49.754;18.636;2023-04-10T00:21:43;99109.57;;;10.40;100.00
56992;BME280;42885;49.754;18.636;2023-04-10T00:24:14;99107.05;;;10.39;100.00
56992;BME280;42885;49.754;18.636;2023-04-10T00:26:47;99107.34;;;10.41;100.00
56992;BME280;42885;49.754;18.636;2023-04-10T00:29:18;99106.92;;;10.42;100.00
56992;BME280;42885;49.754;18.636;2023-04-10T00:31:50;99101.04;;;10.56;100.00
56992;BME280;42885;49.754;18.636;2023-04-10T00:34:21;99104.23;;;10.63;100.00
56992;BME280;42885;49.754;18.636;2023-04-10T00:36:52;99095.68;;;10.59;100.00
56992;BME280;42885;49.754;18.636;2023-04-10T00:39:23;99102.94;;;10.71;100.00
56992;BME280;42885;49.754;18.636;2023-04-10T00:41:54;99096.73;;;10.55;100.00
56992;BME280;42885;49.754;18.636;2023-04-10T00:44:26;99100.76;;;10.62;100.00
56992;BME280;42885;49.754;18.636;2023-04-10T00:46:57;99104.14;;;10.55;100.00
56992;BME280;42885;49.754;18.636;2023-04-10T00:49:28;99095.42;;;10.55;100.00
56992;BME280;42885;49.754;18.636;2023-04-10T00:52:01;99100.27;;;10.54;100.00
56992;BME280;42885;49.754;18.636;2023-04-10T00:54:32;99101.30;;;10.60;100.00
56992;BME280;42885;49.754;18.636;2023-04-10T00:57:05;99096.83;;;10.62;100.00
56992;BME280;42885;49.754;18.636;2023-04-10T00:59:36;99091.21;;;10.61;100.00
56992;BME280;42885;49.754;18.636;2023-04-10T01:02:07;99087.63;;;10.44;100.00
56992;BME280;42885;49.754;18.636;2023-04-10T01:04:40;99090.95;;;10.57;100.00
56992;BME280;42885;49.754;18.636;2023-04-10T01:13:07;99083.30;;;11.17;100.00
56992;BME280;42885;49.754;18.636;2023-04-10T01:15:47;99084.66;;;10.98;100.00
56992;BME280;42885;49.754;18.636;2023-04-10T01:21:01;99086.97;;;10.95;100.00
56992;BME280;42885;49.754;18.636;2023-04-10T01:26:14;99088.11;;;10.98;100.00
56992;BME280;42885;49.754;18.636;2023-04-10T01:29:03;99087.34;;;10.96;100.00
56992;BME280;42885;49.754;18.636;2023-04-10T01:34:42;99089.02;;;10.80;100.00
56992;BME280;42885;49.754;18.636;2023-04-10T01:37:00;99094.73;;;10.79;100.00
56992;BME280;42885;49.754;18.636;2023-04-10T01:39:31;99092.43;;;10.91;100.00
56992;BME280;42885;49.754;18.636;2023-04-10T01:42:06;99083.44;;;11.40;100.00
56992;BME280;42885;49.754;18.636;2023-04-10T01:44:45;99092.64;;;10.49;100.00
56992;BME280;42885;49.754;18.636;2023-04-10T01:47:18;99096.58;;;10.58;100.00
56992;BME280;42885;49.754;18.636;2023-04-10T01:49:52;99101.02;;;10.75;100.00
56992;BME280;42885;49.754;18.636;2023-04-10T01:52:24;99096.42;;;10.80;100.00
56992;BME280;42885;49.754;18.636;2023-04-10T01:54:59;99099.77;;;10.73;100.00
56992;BME280;42885;49.754;18.636;2023-04-10T01:57:33;99104.09;;;10.74;100.00
56992;BME280;42885;49.754;18.636;2023-04-10T02:00:06;99102.52;;;10.90;100.00
56992;BME280;42885;49.754;18.636;2023-04-10T02:02:40;99106.58;;;10.86;100.00
56992;BME280;42885;49.754;18.636;2023-04-10T02:05:11;99097.51;;;10.85;100.00
56992;BME280;42885;49.754;18.636;2023-04-10T02:08:04;99107.78;;;10.70;100.00
56992;BME280;42885;49.754;18.636;2023-04-10T02:10:51;99107.34;;;10.71;100.00
56992;BME280;42885;49.754;18.636;2023-04-10T02:13:18;99108.94;;;10.73;100.00
56992;BME280;42885;49.754;18.636;2023-04-10T02:15:53;99110.47;;;10.69;100.00
56992;BME280;42885;49.754;18.636;2023-04-10T02:18:25;99109.77;;;11.02;100.00
56992;BME280;42885;49.754;18.636;2023-04-10T02:20:56;99110.38;;;10.90;100.00
56992;BME280;42885;49.754;18.636;2023-04-10T02:23:27;99107.16;;;10.93;100.00
56992;BME280;42885;49.754;18.636;2023-04-10T02:26:04;99114.37;;;10.88;100.00
56992;BME280;42885;49.754;18.636;2023-04-10T02:28:32;99105.39;;;10.74;100.00
56992;BME280;42885;49.754;18.636;2023-04-10T02:31:03;99098.58;;;10.53;100.00
56992;BME280;42885;49.754;18.636;2023-04-10T02:33:35;99095.77;;;10.28;100.00
56992;BME280;42885;49.754;18.636;2023-04-10T02:36:07;99099.45;;;10.62;100.00
56992;BME280;42885;49.754;18.636;2023-04-10T02:38:38;99093.97;;;10.86;100.00
56992;BME280;42885;49.754;18.636;2023-04-10T02:41:09;99101.34;;;10.78;100.00
56992;BME280;42885;49.754;18.636;2023-04-10T02:43:40;99094.37;;;10.59;100.00
56992;BME280;42885;49.754;18.636;2023-04-10T02:46:11;99092.96;;;10.52;100.00
56992;BME280;42885;49.754;18.636;2023-04-10T02:48:42;99099.80;;;10.35;100.00
56992;BME280;42885;49.754;18.636;2023-04-10T02:51:14;99099.95;;;10.51;100.00
56992;BME280;42885;49.754;18.636;2023-04-10T02:53:45;99099.94;;;10.42;100.00
56992;BME280;42885;49.754;18.636;2023-04-10T02:56:17;99098.11;;;10.34;100.00
56992;BME280;42885;49.754;18.636;2023-04-10T02:58:49;99094.84;;;10.29;100.00
56992;BME280;42885;49.754;18.636;2023-04-10T03:01:20;99091.39;;;10.48;100.00
56992;BME280;42885;49.754;18.636;2023-04-10T03:03:52;99086.73;;;10.54;100.00
56992;BME280;42885;49.754;18.636;2023-04-10T03:06:25;99094.66;;;10.62;100.00
56992;BME280;42885;49.754;18.636;2023-04-10T03:08:57;99097.41;;;10.39;100.00
56992;BME280;42885;49.754;18.636;2023-04-10T03:11:28;99097.44;;;10.58;100.00
56992;BME280;42885;49.754;18.636;2023-04-10T03:13:59;99093.42;;;10.79;100.00
56992;BME280;42885;49.754;18.636;2023-04-10T03:16:30;99102.99;;;10.61;100.00
56992;BME280;42885;49.754;18.636;2023-04-10T03:19:02;99088.43;;;10.55;100.00
56992;BME280;42885;49.754;18.636;2023-04-10T03:21:33;99096.87;;;10.71;100.00
56992;BME280;42885;49.754;18.636;2023-04-10T03:24:06;99086.78;;;10.81;100.00
56992;BME280;42885;49.754;18.636;2023-04-10T03:26:37;99085.25;;;10.85;100.00
56992;BME280;42885;49.754;18.636;2023-04-10T03:29:08;99093.80;;;10.80;100.00
56992;BME280;42885;49.754;18.636;2023-04-10T03:31:39;99102.59;;;10.79;100.00
56992;BME280;42885;49.754;18.636;2023-04-10T03:34:09;99095.36;;;10.93;100.00
56992;BME280;42885;49.754;18.636;2023-04-10T03:36:40;99097.60;;;10.92;100.00
56992;BME280;42885;49.754;18.636;2023-04-10T03:39:11;99096.80;;;10.90;100.00
56992;BME280;42885;49.754;18.636;2023-04-10T03:41:42;99105.71;;;10.77;100.00
56992;BME280;42885;49.754;18.636;2023-04-10T03:44:13;99096.55;;;10.68;100.00
56992;BME280;42885;49.754;18.636;2023-04-10T03:46:44;99097.95;;;10.76;100.00
56992;BME280;42885;49.754;18.636;2023-04-10T03:49:15;99089.58;;;10.95;100.00
56992;BME280;42885;49.754;18.636;2023-04-10T03:51:47;99097.03;;;10.85;100.00
56992;BME280;42885;49.754;18.636;2023-04-10T03:54:18;99103.70;;;11.01;100.00
56992;BME280;42885;49.754;18.636;2023-04-10T03:56:49;99101.56;;;10.73;100.00
56992;BME280;42885;49.754;18.636;2023-04-10T03:59:22;99101.56;;;10.73;100.00
56992;BME280;42885;49.754;18.636;2023-04-10T04:01:53;99102.23;;;10.59;100.00
56992;BME280;42885;49.754;18.636;2023-04-10T04:04:24;99102.61;;;10.60;100.00
56992;BME280;42885;49.754;18.636;2023-04-10T04:06:58;99105.06;;;10.63;100.00
56992;BME280;42885;49.754;18.636;2023-04-10T04:09:33;99099.97;;;10.79;100.00
56992;BME280;42885;49.754;18.636;2023-04-10T04:12:22;99096.29;;;10.64;100.00
56992;BME280;42885;49.754;18.636;2023-04-10T04:15:07;99092.14;;;10.60;100.00
56992;BME280;42885;49.754;18.636;2023-04-10T04:17:49;99098.37;;;10.66;100.00
56992;BME280;42885;49.754;18.636;2023-04-10T04:20:38;99098.91;;;10.92;100.00
56992;BME280;42885;49.754;18.636;2023-04-10T04:23:18;99099.77;;;11.01;100.00
56992;BME280;42885;49.754;18.636;2023-04-10T04:25:58;99097.94;;;11.12;100.00
56992;BME280;42885;49.754;18.636;2023-04-10T04:28:37;99098.00;;;11.11;100.00
56992;BME280;42885;49.754;18.636;2023-04-10T04:31:26;99096.97;;;10.87;100.00
56992;BME280;42885;49.754;18.636;2023-04-10T04:34:18;99099.27;;;10.84;100.00
56992;BME280;42885;49.754;18.636;2023-04-10T04:37:07;99094.59;;;10.63;100.00
56992;BME280;42885;49.754;18.636;2023-04-10T04:39:39;99108.87;;;10.75;100.00
56992;BME280;42885;49.754;18.636;2023-04-10T04:42:18;99111.94;;;10.46;100.00
56992;BME280;42885;49.754;18.636;2023-04-10T04:44:51;99116.84;;;10.54;100.00
56992;BME280;42885;49.754;18.636;2023-04-10T04:47:39;99113.62;;;10.67;100.00
56992;BME280;42885;49.754;18.636;2023-04-10T04:50:23;99114.77;;;10.61;100.00
56992;BME280;42885;49.754;18.636;2023-04-10T04:52:56;99120.77;;;10.54;100.00
56992;BME280;42885;49.754;18.636;2023-04-10T04:55:37;99124.27;;;10.72;100.00
56992;BME280;42885;49.754;18.636;2023-04-10T04:58:18;99124.27;;;10.72;100.00
56992;BME280;42885;49.754;18.636;2023-04-10T05:01:07;99132.12;;;10.72;100.00
56992;BME280;42885;49.754;18.636;2023-04-10T05:03:46;99133.86;;;10.63;100.00
56992;BME280;42885;49.754;18.636;2023-04-10T05:06:27;99134.63;;;10.56;100.00
56992;BME280;42885;49.754;18.636;2023-04-10T05:09:14;99127.53;;;10.86;100.00
56992;BME280;42885;49.754;18.636;2023-04-10T05:11:49;99133.38;;;10.83;100.00
56992;BME280;42885;49.754;18.636;2023-04-10T05:14:24;99138.75;;;10.71;100.00
56992;BME280;42885;49.754;18.636;2023-04-10T05:17:06;99141.11;;;10.67;100.00
56992;BME280;42885;49.754;18.636;2023-04-10T05:19:51;99142.25;;;10.61;100.00
56992;BME280;42885;49.754;18.636;2023-04-10T05:22:27;99139.19;;;10.42;100.00
56992;BME280;42885;49.754;18.636;2023-04-10T05:25:12;99135.93;;;10.56;100.00
56992;BME280;42885;49.754;18.636;2023-04-10T05:27:44;99133.93;;;10.32;100.00
56992;BME280;42885;49.754;18.636;2023-04-10T05:30:29;99132.29;;;10.40;100.00
56992;BME280;42885;49.754;18.636;2023-04-10T05:33:01;99132.39;;;10.57;100.00
56992;BME280;42885;49.754;18.636;2023-04-10T05:35:46;99131.91;;;10.58;100.00
56992;BME280;42885;49.754;18.636;2023-04-10T05:38:24;99137.36;;;10.53;100.00
56992;BME280;42885;49.754;18.636;2023-04-10T05:41:13;99136.91;;;10.73;100.00
56992;BME280;42885;49.754;18.636;2023-04-10T05:43:46;99145.78;;;10.79;100.00
56992;BME280;42885;49.754;18.636;2023-04-10T05:46:20;99147.22;;;10.67;100.00
56992;BME280;42885;49.754;18.636;2023-04-10T05:48:52;99152.57;;;10.64;100.00
56992;BME280;42885;49.754;18.636;2023-04-10T05:51:25;99157.31;;;10.56;100.00
56992;BME280;42885;49.754;18.636;2023-04-10T05:54:14;99155.41;;;10.59;100.00
56992;BME280;42885;49.754;18.636;2023-04-10T05:57:02;99147.77;;;10.55;100.00
56992;BME280;42885;49.754;18.636;2023-04-10T05:59:51;99146.61;;;10.71;100.00
56992;BME280;42885;49.754;18.636;2023-04-10T06:02:40;99147.28;;;10.74;100.00
56992;BME280;42885;49.754;18.636;2023-04-10T06:05:12;99158.02;;;10.59;100.00
56992;BME280;42885;49.754;18.636;2023-04-10T06:07:44;99162.92;;;10.67;100.00
56992;BME280;42885;49.754;18.636;2023-04-10T06:10:17;99156.50;;;10.64;100.00
56992;BME280;42885;49.754;18.636;2023-04-10T06:12:48;99155.83;;;10.69;100.00
56992;BME280;42885;49.754;18.636;2023-04-10T06:15:19;99156.98;;;10.72;100.00
56992;BME280;42885;49.754;18.636;2023-04-10T06:17:50;99153.92;;;10.73;100.00
56992;BME280;42885;49.754;18.636;2023-04-10T06:20:22;99155.18;;;10.83;100.00
56992;BME280;42885;49.754;18.636;2023-04-10T06:22:54;99151.23;;;11.11;100.00
56992;BME280;42885;49.754;18.636;2023-04-10T06:25:24;99159.79;;;11.06;100.00
56992;BME280;42885;49.754;18.636;2023-04-10T06:27:56;99161.34;;;11.28;100.00
56992;BME280;42885;49.754;18.636;2023-04-10T06:30:27;99155.18;;;11.20;100.00
56992;BME280;42885;49.754;18.636;2023-04-10T06:33:00;99157.95;;;11.26;100.00
56992;BME280;42885;49.754;18.636;2023-04-10T06:35:33;99159.29;;;11.35;100.00
56992;BME280;42885;49.754;18.636;2023-04-10T06:38:06;99155.44;;;11.42;100.00
56992;BME280;42885;49.754;18.636;2023-04-10T06:40:38;99164.64;;;11.14;100.00
56992;BME280;42885;49.754;18.636;2023-04-10T06:43:08;99164.55;;;11.07;100.00
56992;BME280;42885;49.754;18.636;2023-04-10T06:45:40;99165.83;;;11.17;100.00
56992;BME280;42885;49.754;18.636;2023-04-10T06:48:11;99165.83;;;11.17;100.00
56992;BME280;42885;49.754;18.636;2023-04-10T06:50:43;99166.17;;;11.00;100.00
56992;BME280;42885;49.754;18.636;2023-04-10T06:53:14;99168.03;;;11.16;100.00
56992;BME280;42885;49.754;18.636;2023-04-10T06:55:45;99165.16;;;11.03;100.00
56992;BME280;42885;49.754;18.636;2023-04-10T06:58:16;99166.72;;;11.07;100.00
56992;BME280;42885;49.754;18.636;2023-04-10T07:00:47;99163.43;;;11.12;100.00
56992;BME280;42885;49.754;18.636;2023-04-10T07:03:18;99164.89;;;11.18;100.00
56992;BME280;42885;49.754;18.636;2023-04-10T07:05:49;99167.45;;;11.28;100.00
56992;BME280;42885;49.754;18.636;2023-04-10T07:08:20;99163.58;;;10.90;100.00
56992;BME280;42885;49.754;18.636;2023-04-10T07:10:51;99158.66;;;11.21;100.00
56992;BME280;42885;49.754;18.636;2023-04-10T07:13:22;99158.27;;;11.28;100.00
56992;BME280;42885;49.754;18.636;2023-04-10T07:15:53;99160.03;;;11.28;100.00
56992;BME280;42885;49.754;18.636;2023-04-10T07:18:24;99162.18;;;11.20;100.00
56992;BME280;42885;49.754;18.636;2023-04-10T07:20:55;99153.50;;;11.37;100.00
56992;BME280;42885;49.754;18.636;2023-04-10T07:23:26;99156.42;;;10.85;100.00
56992;BME280;42885;49.754;18.636;2023-04-10T07:25:57;99163.33;;;11.05;100.00
56992;BME280;42885;49.754;18.636;2023-04-10T07:28:28;99163.63;;;11.08;100.00
56992;BME280;42885;49.754;18.636;2023-04-10T07:30:59;99162.14;;;11.30;100.00
56992;BME280;42885;49.754;18.636;2023-04-10T07:33:30;99163.46;;;11.02;100.00
56992;BME280;42885;49.754;18.636;2023-04-10T07:36:01;99169.78;;;11.07;100.00
56992;BME280;42885;49.754;18.636;2023-04-10T07:38:34;99168.34;;;11.19;100.00
56992;BME280;42885;49.754;18.636;2023-04-10T07:41:05;99182.08;;;11.24;100.00
56992;BME280;42885;49.754;18.636;2023-04-10T07:43:36;99180.30;;;11.15;100.00
56992;BME280;42885;49.754;18.636;2023-04-10T07:46:07;99182.66;;;11.57;100.00
56992;BME280;42885;49.754;18.636;2023-04-10T07:48:38;99182.26;;;11.65;100.00
56992;BME280;42885;49.754;18.636;2023-04-10T07:51:09;99176.80;;;11.61;100.00
56992;BME280;42885;49.754;18.636;2023-04-10T07:53:41;99175.69;;;11.29;100.00
56992;BME280;42885;49.754;18.636;2023-04-10T07:56:16;99167.16;;;11.52;100.00
56992;BME280;42885;49.754;18.636;2023-04-10T07:58:48;99173.22;;;11.35;100.00
56992;BME280;42885;49.754;18.636;2023-04-10T08:01:19;99173.86;;;11.40;100.00
56992;BME280;42885;49.754;18.636;2023-04-10T08:03:51;99177.00;;;11.21;100.00
56992;BME280;42885;49.754;18.636;2023-04-10T08:06:24;99184.41;;;11.30;100.00
56992;BME280;42885;49.754;18.636;2023-04-10T08:08:54;99182.84;;;11.26;100.00
56992;BME280;42885;49.754;18.636;2023-04-10T08:11:31;99182.08;;;11.24;100.00
56992;BME280;42885;49.754;18.636;2023-04-10T08:14:03;99182.66;;;11.11;100.00
56992;BME280;42885;49.754;18.636;2023-04-10T08:16:35;99178.03;;;11.08;100.00
56992;BME280;42885;49.754;18.636;2023-04-10T08:19:08;99171.06;;;11.17;100.00
56992;BME280;42885;49.754;18.636;2023-04-10T08:21:39;99169.59;;;11.20;100.00
56992;BME280;42885;49.754;18.636;2023-04-10T08:24:10;99164.96;;;11.17;100.00
56992;BME280;42885;49.754;18.636;2023-04-10T08:26:40;99163.36;;;10.67;100.00
56992;BME280;42885;49.754;18.636;2023-04-10T08:29:11;99165.57;;;11.04;100.00
56992;BME280;42885;49.754;18.636;2023-04-10T08:31:42;99157.64;;;11.23;100.00
56992;BME280;42885;49.754;18.636;2023-04-10T08:34:13;99158.05;;;11.33;100.00
56992;BME280;42885;49.754;18.636;2023-04-10T08:36:44;99160.98;;;11.36;100.00
56992;BME280;42885;49.754;18.636;2023-04-10T08:39:15;99159.88;;;11.22;100.00
56992;BME280;42885;49.754;18.636;2023-04-10T08:41:47;99173.33;;;10.97;100.00
56992;BME280;42885;49.754;18.636;2023-04-10T08:44:23;99178.63;;;10.95;100.00
56992;BME280;42885;49.754;18.636;2023-04-10T08:46:58;99167.52;;;11.18;100.00
56992;BME280;42885;49.754;18.636;2023-04-10T08:49:53;99164.22;;;11.32;100.00
56992;BME280;42885;49.754;18.636;2023-04-10T08:52:27;99159.98;;;11.38;100.00
56992;BME280;42885;49.754;18.636;2023-04-10T08:55:00;99164.91;;;11.36;100.00
56992;BME280;42885;49.754;18.636;2023-04-10T08:57:38;99157.73;;;11.48;100.00
56992;BME280;42885;49.754;18.636;2023-04-10T09:00:16;99161.16;;;11.05;100.00
56992;BME280;42885;49.754;18.636;2023-04-10T09:02:48;99161.03;;;11.17;100.00
56992;BME280;42885;49.754;18.636;2023-04-10T09:05:20;99164.26;;;11.13;100.00
56992;BME280;42885;49.754;18.636;2023-04-10T09:07:51;99163.62;;;10.99;100.00
56992;BME280;42885;49.754;18.636;2023-04-10T09:10:23;99169.16;;;10.73;100.00
56992;BME280;42885;49.754;18.636;2023-04-10T09:12:55;99169.05;;;10.66;100.00
56992;BME280;42885;49.754;18.636;2023-04-10T09:15:27;99161.30;;;10.73;100.00
56992;BME280;42885;49.754;18.636;2023-04-10T09:18:00;99159.36;;;10.87;100.00
56992;BME280;42885;49.754;18.636;2023-04-10T09:20:31;99151.34;;;11.27;100.00
56992;BME280;42885;49.754;18.636;2023-04-10T09:23:20;99159.97;;;10.84;100.00
56992;BME280;42885;49.754;18.636;2023-04-10T09:25:54;99159.85;;;11.05;100.00
56992;BME280;42885;49.754;18.636;2023-04-10T09:28:25;99150.34;;;11.30;100.00
56992;BME280;42885;49.754;18.636;2023-04-10T09:30:56;99144.55;;;11.41;100.00
56992;BME280;42885;49.754;18.636;2023-04-10T09:33:27;99142.87;;;11.49;100.00
56992;BME280;42885;49.754;18.636;2023-04-10T09:35:59;99141.52;;;11.84;100.00
56992;BME280;42885;49.754;18.636;2023-04-10T09:38:30;99138.00;;;11.76;100.00
56992;BME280;42885;49.754;18.636;2023-04-10T09:41:08;99138.58;;;12.08;100.00
56992;BME280;42885;49.754;18.636;2023-04-10T09:43:39;99138.91;;;11.84;100.00
56992;BME280;42885;49.754;18.636;2023-04-10T09:46:24;99141.20;;;12.17;100.00
56992;BME280;42885;49.754;18.636;2023-04-10T09:48:53;99133.97;;;11.78;100.00
56992;BME280;42885;49.754;18.636;2023-04-10T09:51:34;99146.95;;;11.37;100.00
56992;BME280;42885;49.754;18.636;2023-04-10T09:54:05;99142.97;;;12.07;100.00
56992;BME280;42885;49.754;18.636;2023-04-10T09:56:38;99139.29;;;12.28;100.00
56992;BME280;42885;49.754;18.636;2023-04-10T09:59:09;99138.45;;;12.27;100.00
56992;BME280;42885;49.754;18.636;2023-04-10T10:01:43;99132.77;;;12.19;100.00
56992;BME280;42885;49.754;18.636;2023-04-10T10:04:15;99129.91;;;12.15;100.00
56992;BME280;42885;49.754;18.636;2023-04-10T10:06:47;99130.19;;;12.51;100.00
56992;BME280;42885;49.754;18.636;2023-04-10T10:09:18;99123.92;;;12.53;100.00
56992;BME280;42885;49.754;18.636;2023-04-10T10:11:50;99123.32;;;12.48;100.00
56992;BME280;42885;49.754;18.636;2023-04-10T10:14:23;99121.45;;;12.34;100.00
56992;BME280;42885;49.754;18.636;2023-04-10T10:16:57;99115.90;;;12.32;100.00
56992;BME280;42885;49.754;18.636;2023-04-10T10:20:19;99123.55;;;11.85;100.00
56992;BME280;42885;49.754;18.636;2023-04-10T10:22:10;99118.98;;;12.06;100.00
56992;BME280;42885;49.754;18.636;2023-04-10T10:24:44;99113.73;;;11.97;100.00
56992;BME280;42885;49.754;18.636;2023-04-10T10:27:17;99111.36;;;11.93;100.00
56992;BME280;42885;49.754;18.636;2023-04-10T10:29:53;99108.64;;;11.94;100.00
56992;BME280;42885;49.754;18.636;2023-04-10T10:32:24;99103.30;;;12.14;100.00
56992;BME280;42885;49.754;18.636;2023-04-10T10:34:56;99103.93;;;12.01;100.00
56992;BME280;42885;49.754;18.636;2023-04-10T10:37:28;99101.67;;;12.11;100.00
56992;BME280;42885;49.754;18.636;2023-04-10T10:40:11;99099.32;;;11.89;100.00
56992;BME280;42885;49.754;18.636;2023-04-10T10:42:57;99100.09;;;12.41;100.00
56992;BME280;42885;49.754;18.636;2023-04-10T10:45:38;99099.36;;;12.14;100.00
56992;BME280;42885;49.754;18.636;2023-04-10T10:48:08;99093.58;;;11.98;100.00
56992;BME280;42885;49.754;18.636;2023-04-10T10:50:54;99087.00;;;12.16;100.00
56992;BME280;42885;49.754;18.636;2023-04-10T10:53:43;99088.91;;;12.05;100.00
56992;BME280;42885;49.754;18.636;2023-04-10T10:58:55;99090.76;;;12.44;100.00
56992;BME280;42885;49.754;18.636;2023-04-10T11:01:27;99094.44;;;12.48;100.00
56992;BME280;42885;49.754;18.636;2023-04-10T11:03:58;99091.84;;;12.39;100.00
56992;BME280;42885;49.754;18.636;2023-04-10T11:06:49;99091.11;;;12.53;100.00
56992;BME280;42885;49.754;18.636;2023-04-10T11:12:20;99089.52;;;12.42;100.00
56992;BME280;42885;49.754;18.636;2023-04-10T11:14:59;99090.91;;;12.41;100.00
56992;BME280;42885;49.754;18.636;2023-04-10T11:17:51;99082.84;;;12.36;100.00
56992;BME280;42885;49.754;18.636;2023-04-10T11:20:23;99082.77;;;12.38;100.00
56992;BME280;42885;49.754;18.636;2023-04-10T11:23:10;99079.66;;;12.22;100.00
56992;BME280;42885;49.754;18.636;2023-04-10T11:25:51;99079.61;;;12.31;100.00
56992;BME280;42885;49.754;18.636;2023-04-10T11:28:36;99071.73;;;12.15;100.00
56992;BME280;42885;49.754;18.636;2023-04-10T11:31:18;99072.10;;;12.64;100.00
56992;BME280;42885;49.754;18.636;2023-04-10T11:36:26;99060.23;;;12.50;100.00
56992;BME280;42885;49.754;18.636;2023-04-10T11:39:03;99053.45;;;12.46;100.00
56992;BME280;42885;49.754;18.636;2023-04-10T11:41:49;99052.89;;;12.64;100.00
56992;BME280;42885;49.754;18.636;2023-04-10T11:44:16;99051.31;;;12.69;100.00
56992;BME280;42885;49.754;18.636;2023-04-10T11:46:49;99050.20;;;13.34;100.00
56992;BME280;42885;49.754;18.636;2023-04-10T11:49:29;99049.22;;;12.59;100.00
56992;BME280;42885;49.754;18.636;2023-04-10T11:51:55;99050.38;;;12.70;100.00
56992;BME280;42885;49.754;18.636;2023-04-10T11:54:27;99046.74;;;12.56;100.00
56992;BME280;42885;49.754;18.636;2023-04-10T11:57:06;99050.00;;;12.52;100.00
56992;BME280;42885;49.754;18.636;2023-04-10T11:59:48;99041.56;;;12.71;100.00
56992;BME280;42885;49.754;18.636;2023-04-10T12:02:18;99039.88;;;12.70;100.00
56992;BME280;42885;49.754;18.636;2023-04-10T12:04:57;99041.37;;;12.66;100.00
56992;BME280;42885;49.754;18.636;2023-04-10T12:07:28;99039.05;;;12.53;100.00
56992;BME280;42885;49.754;18.636;2023-04-10T12:10:00;99041.94;;;12.48;100.00
56992;BME280;42885;49.754;18.636;2023-04-10T12:12:35;99031.55;;;12.54;100.00
56992;BME280;42885;49.754;18.636;2023-04-10T12:15:26;99035.03;;;12.55;100.00
56992;BME280;42885;49.754;18.636;2023-04-10T12:17:58;99037.03;;;12.65;100.00
56992;BME280;42885;49.754;18.636;2023-04-10T12:20:29;99031.51;;;12.63;100.00
56992;BME280;42885;49.754;18.636;2023-04-10T12:23:01;99027.12;;;12.71;100.00
56992;BME280;42885;49.754;18.636;2023-04-10T12:25:32;99024.49;;;12.71;100.00
56992;BME280;42885;49.754;18.636;2023-04-10T12:28:04;99019.30;;;12.85;100.00
56992;BME280;42885;49.754;18.636;2023-04-10T12:30:35;99018.22;;;12.73;100.00
56992;BME280;42885;49.754;18.636;2023-04-10T12:33:06;99009.48;;;12.73;100.00
56992;BME280;42885;49.754;18.636;2023-04-10T12:35:38;99008.05;;;12.83;100.00
56992;BME280;42885;49.754;18.636;2023-04-10T12:38:11;98999.05;;;12.94;100.00
56992;BME280;42885;49.754;18.636;2023-04-10T12:40:59;98995.25;;;13.15;100.00
56992;BME280;42885;49.754;18.636;2023-04-10T12:43:31;98989.88;;;13.02;100.00
56992;BME280;42885;49.754;18.636;2023-04-10T12:46:04;98985.75;;;13.05;100.00
56992;BME280;42885;49.754;18.636;2023-04-10T12:48:35;98986.89;;;13.22;100.00
56992;BME280;42885;49.754;18.636;2023-04-10T12:51:07;98983.47;;;12.99;100.00
56992;BME280;42885;49.754;18.636;2023-04-10T12:53:45;98982.14;;;13.29;100.00
56992;BME280;42885;49.754;18.636;2023-04-10T12:56:16;98986.06;;;13.44;100.00
56992;BME280;42885;49.754;18.636;2023-04-10T12:59:04;98985.14;;;13.38;100.00
56992;BME280;42885;49.754;18.636;2023-04-10T13:01:23;98982.77;;;13.40;100.00
56992;BME280;42885;49.754;18.636;2023-04-10T13:03:55;98974.19;;;13.67;100.00
56992;BME280;42885;49.754;18.636;2023-04-10T13:06:26;98966.90;;;14.55;100.00
56992;BME280;42885;49.754;18.636;2023-04-10T13:08:58;98957.23;;;15.85;100.00
56992;BME280;42885;49.754;18.636;2023-04-10T13:11:30;98952.84;;;16.59;99.98
56992;BME280;42885;49.754;18.636;2023-04-10T13:14:01;98949.28;;;15.92;100.00
56992;BME280;42885;49.754;18.636;2023-04-10T13:16:32;98942.92;;;15.19;100.00
56992;BME280;42885;49.754;18.636;2023-04-10T13:19:03;98937.03;;;15.47;100.00
56992;BME280;42885;49.754;18.636;2023-04-10T13:21:34;98941.13;;;15.95;100.00
56992;BME280;42885;49.754;18.636;2023-04-10T13:24:05;98935.31;;;16.03;98.76
56992;BME280;42885;49.754;18.636;2023-04-10T13:26:37;98936.75;;;15.70;100.00
56992;BME280;42885;49.754;18.636;2023-04-10T13:29:08;98935.54;;;15.37;100.00
56992;BME280;42885;49.754;18.636;2023-04-10T13:31:39;98930.55;;;15.58;100.00
56992;BME280;42885;49.754;18.636;2023-04-10T13:34:10;98922.11;;;15.72;100.00
56992;BME280;42885;49.754;18.636;2023-04-10T13:36:41;98919.86;;;15.60;100.00
56992;BME280;42885;49.754;18.636;2023-04-10T13:39:12;98910.39;;;15.76;100.00